PWSweather.com
Personal Weather Stations
Station Observations
828767
Clearbrook, ClearbrookGB PL6

ClearbrookClearbrookGB PL6

Lat: 50.458829, Lon: -4.093856

Elevation: 453

Station Type: Davis Vantage Pro 2 Plus

http://www.dartmoorwalker.co.uk/weather

Latest ConditionsUpdated 8:50:02 PM GMT Friday, May 25, 2018
Currently Today's Max Today's Min Today's Average
Temperature 57.4°F14.1°C 65.1°F18.4°C 52.0°F11.1°C 59.2°F15.1°C
Dew Point 54.1°F12.3°C 59.5°F15.3°C 50.2°F10.1°C 55.3°F12.9°C
Winds Calm Calm 3.0 mph WNW4.8 kmh WNW - 0.8 mph 1.3 kmh
Wind Gusts 3.0 mph4.8 kmh 10.0 mph16.1 kmh - -
Humidity 89% 95% 76% 87%
Pressure 29.59 in1002.0 mb 29.61 in1002.7 mb 29.56 in1001.0 mb -
Hour Temp Dew Point Humidity Winds Wind Gusts Pressure Precip Precip Rate Daily Precip Total
08:50 PM 57.4°F14.1°C 54.1°F12.3°C 89% Calm Calm 3.0 mph4.8 kmh 29.59 in1002.0 mb 0.00 in0.0 mm 0.00 in0.0 mm 0.00 in0.0 mm
08:40 PM 57.6°F14.2°C 54.3°F12.4°C 89% Calm Calm 3.0 mph4.8 kmh 29.59 in1002.0 mb 0.00 in0.0 mm 0.00 in0.0 mm 0.00 in0.0 mm
08:30 PM 57.7°F14.3°C 54.3°F12.4°C 88% 2.0 mph N3.2 kmh N 8.0 mph12.9 kmh 29.59 in1002.0 mb 0.00 in0.0 mm 0.00 in0.0 mm 0.00 in0.0 mm
08:20 PM 57.9°F14.4°C 54.3°F12.4°C 88% 1.0 mph NW1.6 kmh NW 6.0 mph9.7 kmh 29.59 in1002.0 mb 0.00 in0.0 mm 0.00 in0.0 mm 0.00 in0.0 mm
08:10 PM 58.1°F14.5°C 54.5°F12.5°C 88% 1.0 mph NW1.6 kmh NW 5.0 mph8.0 kmh 29.58 in1001.7 mb 0.00 in0.0 mm 0.00 in0.0 mm 0.00 in0.0 mm
08:00 PM 58.5°F14.7°C 54.9°F12.7°C 88% 1.0 mph NW1.6 kmh NW 8.0 mph12.9 kmh 29.58 in1001.7 mb 0.00 in0.0 mm 0.00 in0.0 mm 0.00 in0.0 mm
07:50 PM 58.6°F14.8°C 54.9°F12.7°C 87% 1.0 mph NW1.6 kmh NW 4.0 mph6.4 kmh 29.58 in1001.7 mb 0.00 in0.0 mm 0.00 in0.0 mm 0.00 in0.0 mm
07:40 PM 58.8°F14.9°C 55.0°F12.8°C 87% 1.0 mph NW1.6 kmh NW 8.0 mph12.9 kmh 29.58 in1001.7 mb 0.00 in0.0 mm 0.00 in0.0 mm 0.00 in0.0 mm
07:30 PM 59.2°F15.1°C 55.2°F12.9°C 87% 1.0 mph NW1.6 kmh NW 8.0 mph12.9 kmh 29.58 in1001.7 mb 0.00 in0.0 mm 0.00 in0.0 mm 0.00 in0.0 mm
07:20 PM 59.4°F15.2°C 55.6°F13.1°C 87% 1.0 mph NW1.6 kmh NW 9.0 mph14.5 kmh 29.58 in1001.7 mb 0.00 in0.0 mm 0.00 in0.0 mm 0.00 in0.0 mm
07:10 PM 59.5°F15.3°C 55.2°F12.9°C 86% 1.0 mph NW1.6 kmh NW 8.0 mph12.9 kmh 29.57 in1001.4 mb 0.00 in0.0 mm 0.00 in0.0 mm 0.00 in0.0 mm
07:00 PM 59.5°F15.3°C 55.4°F13.0°C 86% 2.0 mph NW3.2 kmh NW 7.0 mph11.3 kmh 29.57 in1001.4 mb 0.00 in0.0 mm 0.00 in0.0 mm 0.00 in0.0 mm
06:50 PM 59.7°F15.4°C 55.6°F13.1°C 86% 1.0 mph NNW1.6 kmh NNW 7.0 mph11.3 kmh 29.57 in1001.4 mb 0.00 in0.0 mm 0.00 in0.0 mm 0.00 in0.0 mm
06:40 PM 60.1°F15.6°C 55.4°F13.0°C 85% 1.0 mph NNW1.6 kmh NNW 5.0 mph8.0 kmh 29.57 in1001.4 mb 0.00 in0.0 mm 0.00 in0.0 mm 0.00 in0.0 mm
06:30 PM 60.3°F15.7°C 55.8°F13.2°C 85% 2.0 mph NW3.2 kmh NW 8.0 mph12.9 kmh 29.57 in1001.4 mb 0.00 in0.0 mm 0.00 in0.0 mm 0.00 in0.0 mm
06:20 PM 60.4°F15.8°C 55.6°F13.1°C 84% 2.0 mph NW3.2 kmh NW 9.0 mph14.5 kmh 29.57 in1001.4 mb 0.00 in0.0 mm 0.00 in0.0 mm 0.00 in0.0 mm
06:10 PM 60.6°F15.9°C 55.6°F13.1°C 83% 1.0 mph NNW1.6 kmh NNW 8.0 mph12.9 kmh 29.57 in1001.4 mb 0.00 in0.0 mm 0.00 in0.0 mm 0.00 in0.0 mm
06:00 PM 61.0°F16.1°C 55.8°F13.2°C 83% 1.0 mph NW1.6 kmh NW 6.0 mph9.7 kmh 29.57 in1001.4 mb 0.00 in0.0 mm 0.00 in0.0 mm 0.00 in0.0 mm
05:50 PM 61.0°F16.1°C 55.4°F13.0°C 82% 1.0 mph NW1.6 kmh NW 7.0 mph11.3 kmh 29.57 in1001.4 mb 0.00 in0.0 mm 0.00 in0.0 mm 0.00 in0.0 mm
05:40 PM 61.2°F16.2°C 55.6°F13.1°C 82% 1.0 mph NW1.6 kmh NW 8.0 mph12.9 kmh 29.57 in1001.4 mb 0.00 in0.0 mm 0.00 in0.0 mm 0.00 in0.0 mm
05:30 PM 61.0°F16.1°C 55.0°F12.8°C 81% 2.0 mph WNW3.2 kmh WNW 7.0 mph11.3 kmh 29.57 in1001.4 mb 0.00 in0.0 mm 0.00 in0.0 mm 0.00 in0.0 mm
05:20 PM 61.2°F16.2°C 54.9°F12.7°C 80% 2.0 mph NW3.2 kmh NW 7.0 mph11.3 kmh 29.56 in1001.0 mb 0.00 in0.0 mm 0.00 in0.0 mm 0.00 in0.0 mm
05:10 PM 61.3°F16.3°C 55.0°F12.8°C 80% 3.0 mph NW4.8 kmh NW 9.0 mph14.5 kmh 29.57 in1001.4 mb 0.00 in0.0 mm 0.00 in0.0 mm 0.00 in0.0 mm
05:00 PM 61.3°F16.3°C 54.9°F12.7°C 79% 3.0 mph WNW4.8 kmh WNW 10.0 mph16.1 kmh 29.57 in1001.4 mb 0.00 in0.0 mm 0.00 in0.0 mm 0.00 in0.0 mm
04:50 PM 62.1°F16.7°C 55.9°F13.3°C 80% 2.0 mph WNW3.2 kmh WNW 6.0 mph9.7 kmh 29.57 in1001.4 mb 0.00 in0.0 mm 0.00 in0.0 mm 0.00 in0.0 mm
04:40 PM 62.1°F16.7°C 55.9°F13.3°C 80% 1.0 mph WNW1.6 kmh WNW 7.0 mph11.3 kmh 29.57 in1001.4 mb 0.00 in0.0 mm 0.00 in0.0 mm 0.00 in0.0 mm
04:30 PM 62.1°F16.7°C 55.8°F13.2°C 80% 2.0 mph NW3.2 kmh NW 7.0 mph11.3 kmh 29.57 in1001.4 mb 0.00 in0.0 mm 0.00 in0.0 mm 0.00 in0.0 mm
04:20 PM 62.1°F16.7°C 56.1°F13.4°C 81% 2.0 mph W3.2 kmh W 10.0 mph16.1 kmh 29.57 in1001.4 mb 0.00 in0.0 mm 0.00 in0.0 mm 0.00 in0.0 mm
04:10 PM 62.6°F17.0°C 57.4°F14.1°C 83% 1.0 mph WNW1.6 kmh WNW 5.0 mph8.0 kmh 29.57 in1001.4 mb 0.00 in0.0 mm 0.00 in0.0 mm 0.00 in0.0 mm
04:00 PM 62.4°F16.9°C 57.6°F14.2°C 84% Calm Calm 2.0 mph3.2 kmh 29.58 in1001.7 mb 0.00 in0.0 mm 0.00 in0.0 mm 0.00 in0.0 mm
03:50 PM 62.4°F16.9°C 57.6°F14.2°C 84% 1.0 mph SW1.6 kmh SW 5.0 mph8.0 kmh 29.58 in1001.7 mb 0.00 in0.0 mm 0.00 in0.0 mm 0.00 in0.0 mm
03:40 PM 62.4°F16.9°C 57.6°F14.2°C 84% 1.0 mph W1.6 kmh W 6.0 mph9.7 kmh 29.58 in1001.7 mb 0.00 in0.0 mm 0.00 in0.0 mm 0.00 in0.0 mm
03:30 PM 62.2°F16.8°C 57.0°F13.9°C 83% 1.0 mph WSW1.6 kmh WSW 4.0 mph6.4 kmh 29.58 in1001.7 mb 0.00 in0.0 mm 0.00 in0.0 mm 0.00 in0.0 mm
03:20 PM 62.4°F16.9°C 57.2°F14.0°C 83% 2.0 mph W3.2 kmh W 7.0 mph11.3 kmh 29.58 in1001.7 mb 0.00 in0.0 mm 0.00 in0.0 mm 0.00 in0.0 mm
03:10 PM 62.8°F17.1°C 57.6°F14.2°C 83% 1.0 mph W1.6 kmh W 4.0 mph6.4 kmh 29.58 in1001.7 mb 0.00 in0.0 mm 0.00 in0.0 mm 0.00 in0.0 mm
03:00 PM 63.0°F17.2°C 57.7°F14.3°C 83% 1.0 mph W1.6 kmh W 4.0 mph6.4 kmh 29.58 in1001.7 mb 0.00 in0.0 mm 0.00 in0.0 mm 0.00 in0.0 mm
02:50 PM 62.8°F17.1°C 57.4°F14.1°C 83% Calm Calm 2.0 mph3.2 kmh 29.58 in1001.7 mb 0.00 in0.0 mm 0.00 in0.0 mm 0.00 in0.0 mm
02:40 PM 62.2°F16.8°C 57.4°F14.1°C 84% Calm Calm 1.0 mph1.6 kmh 29.58 in1001.7 mb 0.00 in0.0 mm 0.00 in0.0 mm 0.00 in0.0 mm
02:30 PM 61.5°F16.4°C 56.7°F13.7°C 84% Calm Calm 2.0 mph3.2 kmh 29.58 in1001.7 mb 0.00 in0.0 mm 0.00 in0.0 mm 0.00 in0.0 mm
02:20 PM 61.9°F16.6°C 56.7°F13.7°C 83% Calm Calm 2.0 mph3.2 kmh 29.58 in1001.7 mb 0.00 in0.0 mm 0.00 in0.0 mm 0.00 in0.0 mm
02:10 PM 61.7°F16.5°C 56.5°F13.6°C 83% Calm Calm 2.0 mph3.2 kmh 29.58 in1001.7 mb 0.00 in0.0 mm 0.00 in0.0 mm 0.00 in0.0 mm
02:00 PM 62.2°F16.8°C 56.7°F13.7°C 82% 1.0 mph S1.6 kmh S 6.0 mph9.7 kmh 29.58 in1001.7 mb 0.00 in0.0 mm 0.00 in0.0 mm 0.00 in0.0 mm
01:50 PM 63.3°F17.4°C 57.4°F14.1°C 81% Calm Calm 3.0 mph4.8 kmh 29.58 in1001.7 mb 0.00 in0.0 mm 0.00 in0.0 mm 0.00 in0.0 mm
01:40 PM 63.7°F17.6°C 57.4°F14.1°C 80% Calm Calm 3.0 mph4.8 kmh 29.58 in1001.7 mb 0.00 in0.0 mm 0.00 in0.0 mm 0.00 in0.0 mm
01:30 PM 64.0°F17.8°C 58.1°F14.5°C 81% 1.0 mph S1.6 kmh S 6.0 mph9.7 kmh 29.58 in1001.7 mb 0.00 in0.0 mm 0.00 in0.0 mm 0.00 in0.0 mm
01:20 PM 64.8°F18.2°C 58.8°F14.9°C 81% 1.0 mph SE1.6 kmh SE 7.0 mph11.3 kmh 29.58 in1001.7 mb 0.00 in0.0 mm 0.00 in0.0 mm 0.00 in0.0 mm
01:10 PM 65.1°F18.4°C 59.5°F15.3°C 82% 1.0 mph SSE1.6 kmh SSE 5.0 mph8.0 kmh 29.58 in1001.7 mb 0.00 in0.0 mm 0.00 in0.0 mm 0.00 in0.0 mm
01:00 PM 64.2°F17.9°C 57.9°F14.4°C 80% 1.0 mph S1.6 kmh S 4.0 mph6.4 kmh 29.58 in1001.7 mb 0.00 in0.0 mm 0.00 in0.0 mm 0.00 in0.0 mm
12:50 PM 64.8°F18.2°C 58.5°F14.7°C 80% Calm Calm 3.0 mph4.8 kmh 29.58 in1001.7 mb 0.00 in0.0 mm 0.00 in0.0 mm 0.00 in0.0 mm
12:40 PM 64.2°F17.9°C 57.9°F14.4°C 80% Calm Calm 3.0 mph4.8 kmh 29.58 in1001.7 mb 0.00 in0.0 mm 0.00 in0.0 mm 0.00 in0.0 mm
12:30 PM 64.2°F17.9°C 58.6°F14.8°C 82% Calm Calm 2.0 mph3.2 kmh 29.58 in1001.7 mb 0.00 in0.0 mm 0.00 in0.0 mm 0.00 in0.0 mm
12:20 PM 63.1°F17.3°C 57.6°F14.2°C 82% Calm Calm 2.0 mph3.2 kmh 29.58 in1001.7 mb 0.00 in0.0 mm 0.00 in0.0 mm 0.00 in0.0 mm
12:10 PM 63.0°F17.2°C 57.4°F14.1°C 82% Calm Calm 2.0 mph3.2 kmh 29.58 in1001.7 mb 0.00 in0.0 mm 0.00 in0.0 mm 0.00 in0.0 mm
12:00 PM 62.8°F17.1°C 56.8°F13.8°C 81% Calm Calm 3.0 mph4.8 kmh 29.58 in1001.7 mb 0.00 in0.0 mm 0.00 in0.0 mm 0.00 in0.0 mm
11:50 AM 63.5°F17.5°C 57.2°F14.0°C 80% Calm Calm 3.0 mph4.8 kmh 29.58 in1001.7 mb 0.00 in0.0 mm 0.00 in0.0 mm 0.00 in0.0 mm
11:40 AM 63.9°F17.7°C 57.6°F14.2°C 80% 1.0 mph E1.6 kmh E 7.0 mph11.3 kmh 29.58 in1001.7 mb 0.00 in0.0 mm 0.00 in0.0 mm 0.00 in0.0 mm
11:30 AM 64.6°F18.1°C 57.6°F14.2°C 78% 1.0 mph W1.6 kmh W 4.0 mph6.4 kmh 29.58 in1001.7 mb 0.00 in0.0 mm 0.00 in0.0 mm 0.00 in0.0 mm
11:20 AM 64.0°F17.8°C 57.0°F13.9°C 78% 2.0 mph WNW3.2 kmh WNW 7.0 mph11.3 kmh 29.58 in1001.7 mb 0.00 in0.0 mm 0.00 in0.0 mm 0.00 in0.0 mm
11:10 AM 64.0°F17.8°C 57.0°F13.9°C 78% 1.0 mph NW1.6 kmh NW 6.0 mph9.7 kmh 29.58 in1001.7 mb 0.00 in0.0 mm 0.00 in0.0 mm 0.00 in0.0 mm
11:00 AM 63.7°F17.6°C 56.7°F13.7°C 78% 1.0 mph WNW1.6 kmh WNW 5.0 mph8.0 kmh 29.58 in1001.7 mb 0.00 in0.0 mm 0.00 in0.0 mm 0.00 in0.0 mm
10:50 AM 63.7°F17.6°C 56.7°F13.7°C 78% 1.0 mph WNW1.6 kmh WNW 5.0 mph8.0 kmh 29.59 in1002.0 mb 0.00 in0.0 mm 0.00 in0.0 mm 0.00 in0.0 mm
10:40 AM 63.7°F17.6°C 56.3°F13.5°C 77% 1.0 mph WNW1.6 kmh WNW 6.0 mph9.7 kmh 29.59 in1002.0 mb 0.00 in0.0 mm 0.00 in0.0 mm 0.00 in0.0 mm
10:30 AM 63.7°F17.6°C 56.7°F13.7°C 78% Calm Calm 3.0 mph4.8 kmh 29.59 in1002.0 mb 0.00 in0.0 mm 0.00 in0.0 mm 0.00 in0.0 mm
10:20 AM 63.9°F17.7°C 56.5°F13.6°C 77% Calm Calm 2.0 mph3.2 kmh 29.59 in1002.0 mb 0.00 in0.0 mm 0.00 in0.0 mm 0.00 in0.0 mm
10:10 AM 64.6°F18.1°C 56.8°F13.8°C 76% Calm Calm 1.0 mph1.6 kmh 29.59 in1002.0 mb 0.00 in0.0 mm 0.00 in0.0 mm 0.00 in0.0 mm
10:00 AM 64.6°F18.1°C 57.2°F14.0°C 77% Calm Calm 3.0 mph4.8 kmh 29.59 in1002.0 mb 0.00 in0.0 mm 0.00 in0.0 mm 0.00 in0.0 mm
09:50 AM 63.5°F17.5°C 56.8°F13.8°C 79% Calm Calm 2.0 mph3.2 kmh 29.59 in1002.0 mb 0.00 in0.0 mm 0.00 in0.0 mm 0.00 in0.0 mm
09:40 AM 63.1°F17.3°C 56.7°F13.7°C 79% Calm Calm 2.0 mph3.2 kmh 29.59 in1002.0 mb 0.00 in0.0 mm 0.00 in0.0 mm 0.00 in0.0 mm
09:30 AM 63.0°F17.2°C 57.0°F13.9°C 81% 2.0 mph NE3.2 kmh NE 4.0 mph6.4 kmh 29.59 in1002.0 mb 0.00 in0.0 mm 0.00 in0.0 mm 0.00 in0.0 mm
09:20 AM 63.5°F17.5°C 57.6°F14.2°C 81% 1.0 mph NE1.6 kmh NE 6.0 mph9.7 kmh 29.59 in1002.0 mb 0.00 in0.0 mm 0.00 in0.0 mm 0.00 in0.0 mm
09:10 AM 62.4°F16.9°C 57.2°F14.0°C 83% 1.0 mph NE1.6 kmh NE 4.0 mph6.4 kmh 29.59 in1002.0 mb 0.00 in0.0 mm 0.00 in0.0 mm 0.00 in0.0 mm
09:00 AM 62.2°F16.8°C 58.1°F14.5°C 86% 1.0 mph N1.6 kmh N 5.0 mph8.0 kmh 29.59 in1002.0 mb 0.00 in0.0 mm 0.00 in0.0 mm 0.00 in0.0 mm
08:50 AM 61.9°F16.6°C 57.7°F14.3°C 86% Calm Calm 1.0 mph1.6 kmh 29.59 in1002.0 mb 0.00 in0.0 mm 0.00 in0.0 mm 0.00 in0.0 mm
08:40 AM 61.3°F16.3°C 57.4°F14.1°C 87% Calm Calm 1.0 mph1.6 kmh 29.59 in1002.0 mb 0.00 in0.0 mm 0.00 in0.0 mm 0.00 in0.0 mm
08:30 AM 61.2°F16.2°C 57.4°F14.1°C 87% 1.0 mph NNW1.6 kmh NNW 3.0 mph4.8 kmh 29.59 in1002.0 mb 0.00 in0.0 mm 0.00 in0.0 mm 0.00 in0.0 mm
08:20 AM 60.8°F16.0°C 57.6°F14.2°C 89% 1.0 mph WNW1.6 kmh WNW 5.0 mph8.0 kmh 29.60 in1002.4 mb 0.00 in0.0 mm 0.00 in0.0 mm 0.00 in0.0 mm
08:10 AM 60.1°F15.6°C 57.2°F14.0°C 90% Calm Calm 4.0 mph6.4 kmh 29.60 in1002.4 mb 0.00 in0.0 mm 0.00 in0.0 mm 0.00 in0.0 mm
08:00 AM 59.5°F15.3°C 56.7°F13.7°C 90% 1.0 mph WNW1.6 kmh WNW 7.0 mph11.3 kmh 29.60 in1002.4 mb 0.00 in0.0 mm 0.00 in0.0 mm 0.00 in0.0 mm
07:50 AM 59.9°F15.5°C 56.7°F13.7°C 89% 1.0 mph WNW1.6 kmh WNW 6.0 mph9.7 kmh 29.60 in1002.4 mb 0.00 in0.0 mm 0.00 in0.0 mm 0.00 in0.0 mm
07:40 AM 60.3°F15.7°C 57.0°F13.9°C 89% Calm Calm 5.0 mph8.0 kmh 29.60 in1002.4 mb 0.00 in0.0 mm 0.00 in0.0 mm 0.00 in0.0 mm
07:30 AM 59.4°F15.2°C 56.5°F13.6°C 90% Calm Calm 3.0 mph4.8 kmh 29.59 in1002.0 mb 0.00 in0.0 mm 0.00 in0.0 mm 0.00 in0.0 mm
07:20 AM 58.8°F14.9°C 56.3°F13.5°C 91% 1.0 mph NNE1.6 kmh NNE 4.0 mph6.4 kmh 29.59 in1002.0 mb 0.00 in0.0 mm 0.00 in0.0 mm 0.00 in0.0 mm
07:10 AM 58.8°F14.9°C 56.7°F13.7°C 92% 1.0 mph NE1.6 kmh NE 5.0 mph8.0 kmh 29.59 in1002.0 mb 0.00 in0.0 mm 0.00 in0.0 mm 0.00 in0.0 mm
07:00 AM 58.6°F14.8°C 56.7°F13.7°C 93% Calm Calm 3.0 mph4.8 kmh 29.59 in1002.0 mb 0.00 in0.0 mm 0.00 in0.0 mm 0.00 in0.0 mm
06:50 AM 58.3°F14.6°C 56.5°F13.6°C 94% Calm Calm 1.0 mph1.6 kmh 29.59 in1002.0 mb 0.00 in0.0 mm 0.00 in0.0 mm 0.00 in0.0 mm
06:40 AM 57.6°F14.2°C 56.1°F13.4°C 95% Calm Calm -- 29.59 in1002.0 mb 0.00 in0.0 mm 0.00 in0.0 mm 0.00 in0.0 mm
06:30 AM 56.7°F13.7°C 55.2°F12.9°C 95% Calm Calm -- 29.59 in1002.0 mb 0.00 in0.0 mm 0.00 in0.0 mm 0.00 in0.0 mm
06:20 AM 55.9°F13.3°C 54.5°F12.5°C 95% Calm Calm -- 29.59 in1002.0 mb 0.00 in0.0 mm 0.00 in0.0 mm 0.00 in0.0 mm
06:10 AM 55.8°F13.2°C 54.3°F12.4°C 95% Calm Calm -- 29.59 in1002.0 mb 0.00 in0.0 mm 0.00 in0.0 mm 0.00 in0.0 mm
06:00 AM 55.2°F12.9°C 54.0°F12.2°C 95% Calm Calm -- 29.59 in1002.0 mb 0.00 in0.0 mm 0.00 in0.0 mm 0.00 in0.0 mm
05:50 AM 55.0°F12.8°C 53.6°F12.0°C 95% Calm Calm 3.0 mph4.8 kmh 29.59 in1002.0 mb 0.00 in0.0 mm 0.00 in0.0 mm 0.00 in0.0 mm
05:40 AM 54.7°F12.6°C 53.2°F11.8°C 95% Calm Calm 3.0 mph4.8 kmh 29.59 in1002.0 mb 0.00 in0.0 mm 0.00 in0.0 mm 0.00 in0.0 mm
05:30 AM 54.5°F12.5°C 53.1°F11.7°C 95% Calm Calm 3.0 mph4.8 kmh 29.59 in1002.0 mb 0.00 in0.0 mm 0.00 in0.0 mm 0.00 in0.0 mm
05:20 AM 54.3°F12.4°C 52.9°F11.6°C 95% Calm Calm 1.0 mph1.6 kmh 29.59 in1002.0 mb 0.00 in0.0 mm 0.00 in0.0 mm 0.00 in0.0 mm
05:10 AM 54.1°F12.3°C 52.7°F11.5°C 95% Calm Calm 2.0 mph3.2 kmh 29.59 in1002.0 mb 0.00 in0.0 mm 0.00 in0.0 mm 0.00 in0.0 mm
05:00 AM 54.0°F12.2°C 52.5°F11.4°C 95% 1.0 mph NW1.6 kmh NW 4.0 mph6.4 kmh 29.59 in1002.0 mb 0.00 in0.0 mm 0.00 in0.0 mm 0.00 in0.0 mm
04:50 AM 54.0°F12.2°C 52.5°F11.4°C 95% 1.0 mph WNW1.6 kmh WNW 5.0 mph8.0 kmh 29.59 in1002.0 mb 0.00 in0.0 mm 0.00 in0.0 mm 0.00 in0.0 mm
04:40 AM 53.8°F12.1°C 52.3°F11.3°C 95% 1.0 mph WNW1.6 kmh WNW 4.0 mph6.4 kmh 29.58 in1001.7 mb 0.00 in0.0 mm 0.00 in0.0 mm 0.00 in0.0 mm
04:30 AM 53.6°F12.0°C 52.2°F11.2°C 95% Calm Calm 3.0 mph4.8 kmh 29.58 in1001.7 mb 0.00 in0.0 mm 0.00 in0.0 mm 0.00 in0.0 mm
04:20 AM 53.6°F12.0°C 52.2°F11.2°C 95% Calm Calm 2.0 mph3.2 kmh 29.58 in1001.7 mb 0.00 in0.0 mm 0.00 in0.0 mm 0.00 in0.0 mm
04:10 AM 53.8°F12.1°C 52.3°F11.3°C 95% Calm Calm 2.0 mph3.2 kmh 29.58 in1001.7 mb 0.00 in0.0 mm 0.00 in0.0 mm 0.00 in0.0 mm
04:00 AM 54.0°F12.2°C 52.5°F11.4°C 95% 1.0 mph NW1.6 kmh NW 5.0 mph8.0 kmh 29.58 in1001.7 mb 0.00 in0.0 mm 0.00 in0.0 mm 0.00 in0.0 mm
03:50 AM 54.0°F12.2°C 52.5°F11.4°C 95% Calm Calm 3.0 mph4.8 kmh 29.59 in1002.0 mb 0.00 in0.0 mm 0.00 in0.0 mm 0.00 in0.0 mm
03:40 AM 53.8°F12.1°C 52.3°F11.3°C 95% Calm Calm 3.0 mph4.8 kmh 29.58 in1001.7 mb 0.00 in0.0 mm 0.00 in0.0 mm 0.00 in0.0 mm
03:30 AM 53.4°F11.9°C 52.2°F11.2°C 95% 1.0 mph WNW1.6 kmh WNW 7.0 mph11.3 kmh 29.58 in1001.7 mb 0.00 in0.0 mm 0.00 in0.0 mm 0.00 in0.0 mm
03:20 AM 53.2°F11.8°C 52.0°F11.1°C 95% 3.0 mph W4.8 kmh W 8.0 mph12.9 kmh 29.59 in1002.0 mb 0.00 in0.0 mm 0.00 in0.0 mm 0.00 in0.0 mm
03:10 AM 53.2°F11.8°C 51.8°F11.0°C 95% 3.0 mph W4.8 kmh W 7.0 mph11.3 kmh 29.59 in1002.0 mb 0.00 in0.0 mm 0.00 in0.0 mm 0.00 in0.0 mm
03:00 AM 53.2°F11.8°C 51.8°F11.0°C 95% 1.0 mph WNW1.6 kmh WNW 6.0 mph9.7 kmh 29.59 in1002.0 mb 0.00 in0.0 mm 0.00 in0.0 mm 0.00 in0.0 mm
02:50 AM 53.2°F11.8°C 52.0°F11.1°C 95% 1.0 mph WNW1.6 kmh WNW 4.0 mph6.4 kmh 29.59 in1002.0 mb 0.00 in0.0 mm 0.00 in0.0 mm 0.00 in0.0 mm
02:40 AM 53.4°F11.9°C 52.0°F11.1°C 95% 2.0 mph W3.2 kmh W 4.0 mph6.4 kmh 29.59 in1002.0 mb 0.00 in0.0 mm 0.00 in0.0 mm 0.00 in0.0 mm
02:30 AM 53.4°F11.9°C 52.2°F11.2°C 95% 1.0 mph W1.6 kmh W 4.0 mph6.4 kmh 29.59 in1002.0 mb 0.00 in0.0 mm 0.00 in0.0 mm 0.00 in0.0 mm
02:20 AM 53.6°F12.0°C 52.2°F11.2°C 95% Calm Calm 1.0 mph1.6 kmh 29.59 in1002.0 mb 0.00 in0.0 mm 0.00 in0.0 mm 0.00 in0.0 mm
02:10 AM 53.6°F12.0°C 52.2°F11.2°C 95% Calm Calm 1.0 mph1.6 kmh 29.59 in1002.0 mb 0.00 in0.0 mm 0.00 in0.0 mm 0.00 in0.0 mm
02:00 AM 53.6°F12.0°C 52.2°F11.2°C 95% 1.0 mph WSW1.6 kmh WSW 4.0 mph6.4 kmh 29.59 in1002.0 mb 0.00 in0.0 mm 0.00 in0.0 mm 0.00 in0.0 mm
01:50 AM 53.6°F12.0°C 52.2°F11.2°C 95% 1.0 mph WSW1.6 kmh WSW 4.0 mph6.4 kmh 29.59 in1002.0 mb 0.00 in0.0 mm 0.00 in0.0 mm 0.00 in0.0 mm
01:40 AM 53.8°F12.1°C 52.3°F11.3°C 95% 1.0 mph WSW1.6 kmh WSW 3.0 mph4.8 kmh 29.59 in1002.0 mb 0.00 in0.0 mm 0.00 in0.0 mm 0.00 in0.0 mm
01:30 AM 53.8°F12.1°C 52.3°F11.3°C 95% 1.0 mph W1.6 kmh W 6.0 mph9.7 kmh 29.59 in1002.0 mb 0.00 in0.0 mm 0.00 in0.0 mm 0.00 in0.0 mm
01:20 AM 53.8°F12.1°C 52.3°F11.3°C 95% 2.0 mph W3.2 kmh W 6.0 mph9.7 kmh 29.60 in1002.4 mb 0.00 in0.0 mm 0.00 in0.0 mm 0.00 in0.0 mm
01:10 AM 54.0°F12.2°C 52.5°F11.4°C 95% 3.0 mph W4.8 kmh W 7.0 mph11.3 kmh 29.60 in1002.4 mb 0.00 in0.0 mm 0.00 in0.0 mm 0.00 in0.0 mm
01:00 AM 53.8°F12.1°C 52.3°F11.3°C 95% 3.0 mph WNW4.8 kmh WNW 7.0 mph11.3 kmh 29.60 in1002.4 mb 0.00 in0.0 mm 0.00 in0.0 mm 0.00 in0.0 mm
12:50 AM 53.2°F11.8°C 52.0°F11.1°C 95% 1.0 mph NW1.6 kmh NW 3.0 mph4.8 kmh 29.60 in1002.4 mb 0.00 in0.0 mm 0.00 in0.0 mm 0.00 in0.0 mm
12:40 AM 52.7°F11.5°C 51.3°F10.7°C 95% Calm Calm 2.0 mph3.2 kmh 29.61 in1002.7 mb 0.00 in0.0 mm 0.00 in0.0 mm 0.00 in0.0 mm
12:30 AM 52.3°F11.3°C 51.1°F10.6°C 95% Calm Calm 3.0 mph4.8 kmh 29.61 in1002.7 mb 0.00 in0.0 mm 0.00 in0.0 mm 0.00 in0.0 mm
12:20 AM 52.3°F11.3°C 51.1°F10.6°C 95% 1.0 mph WNW1.6 kmh WNW 4.0 mph6.4 kmh 29.61 in1002.7 mb 0.00 in0.0 mm 0.00 in0.0 mm 0.00 in0.0 mm
12:10 AM 52.3°F11.3°C 51.1°F10.6°C 95% 1.0 mph WNW1.6 kmh WNW 3.0 mph4.8 kmh 29.60 in1002.4 mb 0.00 in0.0 mm 0.00 in0.0 mm 0.00 in0.0 mm
12:00 AM 52.0°F11.1°C 50.2°F10.1°C 94% Calm Calm -- 29.61 in1002.7 mb 0.00 in0.0 mm 0.00 in0.0 mm 0.00 in0.0 mm